Home > Products > Valid Products > TAF

000
FTUS44 KOHX 251100
TAFCSV
TAF
KCSV 251138Z 2512/2612 00000KT P6SM SKC
     FM251500 28006G15KT P6SM FEW035
     FM252200 33005KT P6SM BKN035
     FM260700 VRB02KT 2SM BR SCT007=



000
FTUS44 KOHX 251100
TAFBNA
TAF
KBNA 251138Z 2512/2612 19003KT P6SM FEW250
     FM251400 26008KT P6SM SCT040
     FM260700 32004KT 4SM BR SCT010=



000
FTUS44 KOHX 251100
TAFCKV
TAF
KCKV 251138Z 2512/2612 16004KT 5SM BR BKN045
     FM251500 24007G15KT P6SM SCT040
     FM260700 VRB02KT 3SM BR SCT010=



000
FTUS44 KOHX 251100
TAFCSV
TAF
KCSV 251138Z 2512/2612 00000KT P6SM SKC
     FM251500 28006G15KT P6SM FEW035
     FM252200 33005KT P6SM BKN035
     FM260700 VRB02KT 2SM BR SCT007=



000
FTUS44 KOHX 251100
TAFBNA
TAF
KBNA 251138Z 2512/2612 19003KT P6SM FEW250
     FM251400 26008KT P6SM SCT040
     FM260700 32004KT 4SM BR SCT010=



000
FTUS44 KOHX 251100
TAFCKV
TAF
KCKV 251138Z 2512/2612 16004KT 5SM BR BKN045
     FM251500 24007G15KT P6SM SCT040
     FM260700 VRB02KT 3SM BR SCT010=



000
FTUS44 KOHX 251000 AAA
TAFCSV
TAF AMD
KCSV 251025Z 2510/2606 00000KT P6SM SKC
      TEMPO 2510/2513 3SM BR
     FM251600 21005KT P6SM BKN035
     FM260000 33004KT P6SM SKC=



000
FTUS44 KOHX 250800 AAB
TAFCKV
TAF AMD
KCKV 250857Z 2509/2606 00000KT 4SM BR SCT045
      TEMPO 2509/2511 1SM BR
     FM251200 22005KT P6SM SCT040
     FM252000 32004KT P6SM SKC=



000
FTUS44 KOHX 250600 AAA
TAFCKV
TAF AMD
KCKV 250618Z 2506/2606 00000KT 2SM BR FEW250
      TEMPO 2506/2510 1/4SM FG
     FM251200 21005KT P6SM SCT040
     FM252000 32004KT P6SM SKC=



000
FTUS44 KOHX 250500
TAFCSV
TAF
KCSV 250521Z 2506/2606 00000KT P6SM SKC
     FM251600 21005KT P6SM BKN035
     FM260000 33004KT P6SM SKC=



000
FTUS44 KOHX 250500
TAFBNA
TAF
KBNA 250521Z 2506/2606 VRB03KT P6SM SKC
      TEMPO 2507/2511 4SM BR
     FM251400 20005KT P6SM SCT040
     FM252200 32004KT P6SM SKC=



000
FTUS44 KOHX 250500
TAFCKV
TAF
KCKV 250521Z 2506/2606 00000KT 3SM BR SKC
      TEMPO 2506/2510 3/4SM BR
     FM251200 21005KT P6SM SCT040
     FM252000 32004KT P6SM SKC=



000
FTUS44 KOHX 250400 AAA
TAFCKV
TAF AMD
KCKV 250425Z 2504/2524 00000KT 6SM BR BCFG SCT250
     FM251400 23005KT P6SM SCT040=



000
FTUS44 KOHX 242300
TAFCSV
TAF
KCSV 242331Z 2500/2524 VRB03KT P6SM SCT250
     FM251600 21005KT P6SM BKN035=



000
FTUS44 KOHX 242300
TAFBNA
TAF
KBNA 242331Z 2500/2524 VRB04KT P6SM SCT250
     FM251400 23005KT P6SM SCT040=



000
FTUS44 KOHX 242300
TAFCKV
TAF
KCKV 242331Z 2500/2524 VRB04KT P6SM SCT250
     FM251400 23005KT P6SM SCT040=



000
FTUS44 KOHX 241700
TAFBNA
TAF
KBNA 241720Z 2418/2518 35005KT P6SM FEW130=



000
FTUS44 KOHX 241700
TAFCSV
TAF
KCSV 241720Z 2418/2518 VRB03KT P6SM SKC=



000
FTUS44 KOHX 241700
TAFCKV
TAF
KCKV 241720Z 2418/2518 27004KT P6SM SCT045 SCT060=



000
FTUS44 KOHX 241300 AAA
TAFCKV
TAF AMD
KCKV 241303Z 2413/2512 00000KT P6SM SCT090
     FM241400 32005KT P6SM FEW040 SCT150=



000
FTUS44 KOHX 241100
TAFCKV
TAF
KCKV 241120Z 2412/2512 00000KT 5SM BR SCT150
      TEMPO 2412/2413 2SM BR
     FM241400 32005KT P6SM FEW040 SCT150=



000
FTUS44 KOHX 241100
TAFCSV
TAF
KCSV 241120Z 2412/2512 00000KT P6SM SCT150
      TEMPO 2412/2413 4SM BR
     FM241400 32005KT P6SM FEW040 SCT150=



000
FTUS44 KOHX 241100
TAFBNA
TAF
KBNA 241120Z 2412/2512 34005KT P6SM FEW040 SCT150=



000
FTUS44 KOHX 240900 AAA
TAFCKV
TAF AMD
KCKV 240905Z 2409/2506 00000KT P6SM BKN150
      TEMPO 2410/2413 2SM BR
     FM241400 32003KT P6SM SKC=



000
FTUS44 KOHX 240500
TAFCKV
TAF
KCKV 240528Z 2406/2506 04003KT P6SM BKN180
     FM240900 00000KT 5SM BR SKC
      TEMPO 2410/2413 2SM BR
     FM241400 32003KT P6SM SKC=



000
FTUS44 KOHX 240500
TAFCSV
TAF
KCSV 240528Z 2406/2506 02005KT P6SM BKN160
     FM241200 02003KT P6SM SCT160=



000
FTUS44 KOHX 240500
TAFBNA
TAF
KBNA 240528Z 2406/2506 03003KT P6SM OVC180
     FM241000 36003KT P6SM SCT180=



000
FTUS44 KOHX 232300
TAFCSV
TAF
KCSV 232324Z 2400/2424 02005KT P6SM BKN200
     FM241400 02003KT P6SM SCT200=



000
FTUS44 KOHX 232300
TAFBNA
TAF
KBNA 232324Z 2400/2424 03003KT P6SM BKN250
     FM241200 36003KT P6SM SCT250=



000
FTUS44 KOHX 232300
TAFCKV
TAF
KCKV 232324Z 2400/2424 04003KT P6SM BKN250
     FM240900 00000KT 5SM BR SKC
      TEMPO 2410/2413 2SM BR
     FM241400 32003KT P6SM SKC=



000
FTUS44 KOHX 231700
TAFBNA
TAF
KBNA 231720Z 2318/2418 09006KT P6SM SCT250
     FM240200 02003KT P6SM SCT150=



000
FTUS44 KOHX 231700
TAFCSV
TAF
KCSV 231720Z 2318/2418 VRB03KT P6SM SKC=



000
FTUS44 KOHX 231700
TAFCKV
TAF
KCKV 231720Z 2318/2418 06007KT P6SM SKC
     FM240900 00000KT 5SM BR SKC
      TEMPO 2410/2413 2SM BR
     FM241400 VRB02KT P6SM SKC=



000
FTUS44 KOHX 231300 AAA
TAFCKV
TAF AMD
KCKV 231308Z 2313/2412 05005KT P6SM SKC
      TEMPO 2313/2314 4SM BR
     FM240600 03002KT 5SM BR SCT150=



000
FTUS44 KOHX 231100
TAFBNA
TAF
KBNA 231138Z 2312/2412 04005KT P6SM SKC
     FM240600 VRB03KT 5SM BR SCT150=



000
FTUS44 KOHX 231100
TAFCSV
TAF
KCSV 231138Z 2312/2412 04004KT P6SM FEW025
     FM240600 VRB02KT 2SM BR FEW150=



000
FTUS44 KOHX 231100
TAFCKV
TAF
KCKV 231138Z 2312/2412 05005KT P6SM SKC
      TEMPO 2312/2313 3/4SM BR
     FM240600 03002KT 5SM BR SCT150=



000
FTUS44 KOHX 230900 AAB
TAFCKV
TAF AMD
KCKV 230958Z 2310/2406 VRB02KT 3SM BR SKC
      TEMPO 2310/2312 1/4SM FG
     FM231400 05005KT P6SM SKC=



000
FTUS44 KOHX 230900 AAB
TAFCKV
TAF AMD
KCKV 230958Z 2310/2406 VRB02KT 3SM BR SKC
      TEMPO 2310/2312 1/4SM FG
     FM231400 05005KT P6SM SKC=



000
FTUS44 KOHX 230900 AAA
TAFCKV
TAF AMD
KCKV 230940Z 2310/2406 03004KT P6SM SKC
      TEMPO 2310/2313 4SM BR=



000
FTUS44 KOHX 230500
TAFCSV
TAF
KCSV 230528Z 2306/2406 03004KT P6SM FEW028=



000
FTUS44 KOHX 230500
TAFCKV
TAF
KCKV 230528Z 2306/2406 03004KT P6SM SKC=



000
FTUS44 KOHX 230500
TAFBNA
TAF
KBNA 230528Z 2306/2406 05004KT P6SM SKC=



000
FTUS44 KOHX 222300
TAFCKV
TAF
KCKV 222339Z 2300/2324 03005KT P6SM SKC=



000
FTUS44 KOHX 222300
TAFCSV
TAF
KCSV 222339Z 2300/2324 03005KT P6SM SKC=



000
FTUS44 KOHX 222300
TAFBNA
TAF
KBNA 222339Z 2300/2324 03005KT P6SM SKC=



000
FTUS44 KOHX 221700
TAFCKV
TAF
KCKV 221727Z 2218/2318 02007KT P6SM SKC
     FM231000 05004KT 3SM BR SKC
     FM231400 07005KT P6SM SKC=



000
FTUS44 KOHX 221700
TAFCSV
TAF
KCSV 221727Z 2218/2318 03009G13KT P6SM SKC
     FM230000 02005KT P6SM SKC
     FM231000 05004KT 4SM BR SKC
     FM231400 06007KT P6SM SKC=



000
FTUS44 KOHX 221700
TAFBNA
TAF
KBNA 221727Z 2218/2318 03009G14KT P6SM SKC
     FM230000 04006KT P6SM SKC=



000
FTUS44 KOHX 221700
TAFCSV
TAF
KCSV 221727Z 2218/2318 03009G13KT P6SM SKC
     FM230000 02005KT P6SM SKC
     FM231000 05004KT 4SM BR SKC
     FM231400 06007KT P6SM SKC=



000
FTUS44 KOHX 221700
TAFBNA
TAF
KBNA 221727Z 2218/2318 03009G14KT P6SM SKC
     FM230000 04006KT P6SM SKC=



000
FTUS44 KOHX 221700
TAFCKV
TAF
KCKV 221727Z 2218/2318 02007KT P6SM SKC
     FM231000 05004KT 3SM BR SKC
     FM231400 07005KT P6SM SKC=



000
FTUS44 KOHX 221600 AAA
TAFBNA
TAF AMD
KBNA 221621Z 2216/2312 03009G14KT P6SM SKC
     FM230000 02006KT P6SM SKC=



000
FTUS44 KOHX 221600 AAA
TAFBNA
TAF AMD
KBNA 221621Z 2216/2312 03009G14KT P6SM SKC
     FM230000 02006KT P6SM SKC=



000
FTUS44 KOHX 221400 AAB
TAFCSV
TAF AMD
KCSV 221429Z 2214/2312 05011G15KT P6SM SCT011 BKN015
     FM221530 05008G17KT P6SM SKC=



000
FTUS44 KOHX 221300 AAA
TAFCSV
TAF AMD
KCSV 221347Z 2214/2312 05010KT P6SM BKN009
     FM221430 05008G17KT P6SM SKC=



    US Dept of Commerce
    National Oceanic and Atmospheric Administration
    National Weather Service
    1325 East West Highway
    Silver Spring, MD 20910
    Page Author: NWS Internet Services Team
Disclaimer
Information Quality
Credits
Glossary
Privacy Policy
Freedom of Information Act (FOIA)
About Us
Career Opportunities